sensor_id;sensor_type;location;lat;lon;timestamp;temperature;humidity
59307;DHT22;47983;53.016;-2.260;2023-02-28T00:01:29;5.70;99.90
59307;DHT22;47983;53.016;-2.260;2023-02-28T00:03:57;5.70;99.90
59307;DHT22;47983;53.016;-2.260;2023-02-28T00:06:25;5.70;99.90
59307;DHT22;47983;53.016;-2.260;2023-02-28T00:08:53;5.70;99.90
59307;DHT22;47983;53.016;-2.260;2023-02-28T00:11:20;5.70;99.90
59307;DHT22;47983;53.016;-2.260;2023-02-28T00:13:49;5.70;99.90
59307;DHT22;47983;53.016;-2.260;2023-02-28T00:16:20;5.70;99.90
59307;DHT22;47983;53.016;-2.260;2023-02-28T00:18:48;5.70;99.90
59307;DHT22;47983;53.016;-2.260;2023-02-28T00:21:17;5.70;99.90
59307;DHT22;47983;53.016;-2.260;2023-02-28T00:23:46;5.70;99.90
59307;DHT22;47983;53.016;-2.260;2023-02-28T00:26:13;5.70;99.90
59307;DHT22;47983;53.016;-2.260;2023-02-28T00:28:45;5.70;99.90
59307;DHT22;47983;53.016;-2.260;2023-02-28T00:31:12;5.70;99.90
59307;DHT22;47983;53.016;-2.260;2023-02-28T00:33:40;5.70;99.90
59307;DHT22;47983;53.016;-2.260;2023-02-28T00:36:10;5.60;99.90
59307;DHT22;47983;53.016;-2.260;2023-02-28T00:38:39;5.60;99.90
59307;DHT22;47983;53.016;-2.260;2023-02-28T00:41:08;5.60;99.90
59307;DHT22;47983;53.016;-2.260;2023-02-28T00:43:39;5.60;99.90
59307;DHT22;47983;53.016;-2.260;2023-02-28T00:46:07;5.60;99.90
59307;DHT22;47983;53.016;-2.260;2023-02-28T00:48:35;5.70;99.90
59307;DHT22;47983;53.016;-2.260;2023-02-28T00:51:04;5.60;99.90
59307;DHT22;47983;53.016;-2.260;2023-02-28T00:53:32;5.60;99.90
59307;DHT22;47983;53.016;-2.260;2023-02-28T00:56:00;5.60;99.90
59307;DHT22;47983;53.016;-2.260;2023-02-28T00:58:28;5.60;99.90
59307;DHT22;47983;53.016;-2.260;2023-02-28T01:00:57;5.50;99.90
59307;DHT22;47983;53.016;-2.260;2023-02-28T01:03:24;5.50;99.90
59307;DHT22;47983;53.016;-2.260;2023-02-28T01:05:52;5.50;99.90
59307;DHT22;47983;53.016;-2.260;2023-02-28T01:08:22;5.50;99.90
59307;DHT22;47983;53.016;-2.260;2023-02-28T01:10:50;5.50;99.90
59307;DHT22;47983;53.016;-2.260;2023-02-28T01:13:18;5.50;99.90
59307;DHT22;47983;53.016;-2.260;2023-02-28T01:15:51;5.50;99.90
59307;DHT22;47983;53.016;-2.260;2023-02-28T01:18:20;5.50;99.90
59307;DHT22;47983;53.016;-2.260;2023-02-28T01:20:48;5.40;99.90
59307;DHT22;47983;53.016;-2.260;2023-02-28T01:23:16;5.50;99.90
59307;DHT22;47983;53.016;-2.260;2023-02-28T01:25:44;5.50;99.90
59307;DHT22;47983;53.016;-2.260;2023-02-28T01:28:11;5.40;99.90
59307;DHT22;47983;53.016;-2.260;2023-02-28T01:30:39;5.40;99.90
59307;DHT22;47983;53.016;-2.260;2023-02-28T01:33:07;5.40;99.90
59307;DHT22;47983;53.016;-2.260;2023-02-28T01:35:35;5.40;99.90
59307;DHT22;47983;53.016;-2.260;2023-02-28T01:38:03;5.50;99.90
59307;DHT22;47983;53.016;-2.260;2023-02-28T01:40:47;5.40;99.90
59307;DHT22;47983;53.016;-2.260;2023-02-28T01:43:27;5.50;99.90
59307;DHT22;47983;53.016;-2.260;2023-02-28T01:45:56;5.40;99.90
59307;DHT22;47983;53.016;-2.260;2023-02-28T01:48:26;5.40;99.90
59307;DHT22;47983;53.016;-2.260;2023-02-28T01:50:58;5.40;99.90
59307;DHT22;47983;53.016;-2.260;2023-02-28T01:53:33;5.40;99.90
59307;DHT22;47983;53.016;-2.260;2023-02-28T01:56:05;5.40;99.90
59307;DHT22;47983;53.016;-2.260;2023-02-28T01:58:34;5.40;99.90
59307;DHT22;47983;53.016;-2.260;2023-02-28T02:01:02;5.30;99.90
59307;DHT22;47983;53.016;-2.260;2023-02-28T02:03:31;5.30;99.90
59307;DHT22;47983;53.016;-2.260;2023-02-28T02:05:58;5.30;99.90
59307;DHT22;47983;53.016;-2.260;2023-02-28T02:08:28;5.30;99.90
59307;DHT22;47983;53.016;-2.260;2023-02-28T02:11:00;5.20;99.90
59307;DHT22;47983;53.016;-2.260;2023-02-28T02:25:18;5.20;99.90
59307;DHT22;47983;53.016;-2.260;2023-02-28T02:33:23;5.10;99.90
59307;DHT22;47983;53.016;-2.260;2023-02-28T02:36:31;5.10;99.90
59307;DHT22;47983;53.016;-2.260;2023-02-28T02:41:51;5.10;99.90
59307;DHT22;47983;53.016;-2.260;2023-02-28T02:44:29;5.20;99.90
59307;DHT22;47983;53.016;-2.260;2023-02-28T02:47:03;5.20;99.90
59307;DHT22;47983;53.016;-2.260;2023-02-28T02:49:36;5.20;99.90
59307;DHT22;47983;53.016;-2.260;2023-02-28T02:52:08;5.20;99.90
59307;DHT22;47983;53.016;-2.260;2023-02-28T02:54:40;5.20;99.90
59307;DHT22;47983;53.016;-2.260;2023-02-28T02:57:15;5.10;99.90
59307;DHT22;47983;53.016;-2.260;2023-02-28T02:59:46;5.10;99.90
59307;DHT22;47983;53.016;-2.260;2023-02-28T03:02:19;5.00;99.90
59307;DHT22;47983;53.016;-2.260;2023-02-28T03:05:00;5.00;99.90
59307;DHT22;47983;53.016;-2.260;2023-02-28T03:07:28;5.00;99.90
59307;DHT22;47983;53.016;-2.260;2023-02-28T03:09:57;4.90;99.90
59307;DHT22;47983;53.016;-2.260;2023-02-28T03:12:34;4.90;99.90
59307;DHT22;47983;53.016;-2.260;2023-02-28T03:15:22;4.90;99.90
59307;DHT22;47983;53.016;-2.260;2023-02-28T03:21:56;4.90;99.90
59307;DHT22;47983;53.016;-2.260;2023-02-28T03:24:25;4.80;99.90
59307;DHT22;47983;53.016;-2.260;2023-02-28T03:26:58;4.80;99.90
59307;DHT22;47983;53.016;-2.260;2023-02-28T03:29:43;4.80;99.90
59307;DHT22;47983;53.016;-2.260;2023-02-28T03:32:28;4.80;99.90
59307;DHT22;47983;53.016;-2.260;2023-02-28T03:35:14;4.80;99.90
59307;DHT22;47983;53.016;-2.260;2023-02-28T03:37:53;4.80;99.90
59307;DHT22;47983;53.016;-2.260;2023-02-28T03:40:26;4.80;99.90
59307;DHT22;47983;53.016;-2.260;2023-02-28T03:42:59;4.90;99.90
59307;DHT22;47983;53.016;-2.260;2023-02-28T03:45:30;4.90;99.90
59307;DHT22;47983;53.016;-2.260;2023-02-28T03:48:07;4.90;99.90
59307;DHT22;47983;53.016;-2.260;2023-02-28T03:50:44;4.80;99.90
59307;DHT22;47983;53.016;-2.260;2023-02-28T03:53:28;4.80;99.90
59307;DHT22;47983;53.016;-2.260;2023-02-28T03:56:20;4.70;99.90
59307;DHT22;47983;53.016;-2.260;2023-02-28T04:01:36;4.50;99.90
59307;DHT22;47983;53.016;-2.260;2023-02-28T04:04:05;4.40;99.90
59307;DHT22;47983;53.016;-2.260;2023-02-28T04:06:34;4.30;99.90
59307;DHT22;47983;53.016;-2.260;2023-02-28T04:09:03;4.20;99.90
59307;DHT22;47983;53.016;-2.260;2023-02-28T04:11:40;4.10;99.90
59307;DHT22;47983;53.016;-2.260;2023-02-28T04:14:09;4.10;99.90
59307;DHT22;47983;53.016;-2.260;2023-02-28T04:16:39;4.10;99.90
59307;DHT22;47983;53.016;-2.260;2023-02-28T04:19:09;4.10;99.90
59307;DHT22;47983;53.016;-2.260;2023-02-28T04:21:41;4.10;99.90
59307;DHT22;47983;53.016;-2.260;2023-02-28T04:24:11;4.10;99.90
59307;DHT22;47983;53.016;-2.260;2023-02-28T04:26:44;4.30;99.90
59307;DHT22;47983;53.016;-2.260;2023-02-28T04:29:14;4.30;99.90
59307;DHT22;47983;53.016;-2.260;2023-02-28T04:31:42;4.30;99.90
59307;DHT22;47983;53.016;-2.260;2023-02-28T04:34:09;4.40;99.90
59307;DHT22;47983;53.016;-2.260;2023-02-28T04:36:37;4.40;99.90
59307;DHT22;47983;53.016;-2.260;2023-02-28T04:39:04;4.40;99.90
59307;DHT22;47983;53.016;-2.260;2023-02-28T04:41:32;4.50;99.90
59307;DHT22;47983;53.016;-2.260;2023-02-28T04:44:01;4.50;99.90
59307;DHT22;47983;53.016;-2.260;2023-02-28T04:46:28;4.50;99.90
59307;DHT22;47983;53.016;-2.260;2023-02-28T04:48:58;4.50;99.90
59307;DHT22;47983;53.016;-2.260;2023-02-28T04:51:26;4.50;99.90
59307;DHT22;47983;53.016;-2.260;2023-02-28T04:53:54;4.50;99.90
59307;DHT22;47983;53.016;-2.260;2023-02-28T04:56:23;4.50;99.90
59307;DHT22;47983;53.016;-2.260;2023-02-28T04:58:50;4.50;99.90
59307;DHT22;47983;53.016;-2.260;2023-02-28T05:03:54;4.50;99.90
59307;DHT22;47983;53.016;-2.260;2023-02-28T05:06:23;4.60;99.90
59307;DHT22;47983;53.016;-2.260;2023-02-28T05:08:51;4.50;99.90
59307;DHT22;47983;53.016;-2.260;2023-02-28T05:11:28;4.60;99.90
59307;DHT22;47983;53.016;-2.260;2023-02-28T05:14:04;4.60;99.90
59307;DHT22;47983;53.016;-2.260;2023-02-28T05:16:32;4.60;99.90
59307;DHT22;47983;53.016;-2.260;2023-02-28T05:19:00;4.60;99.90
59307;DHT22;47983;53.016;-2.260;2023-02-28T05:21:33;4.60;99.90
59307;DHT22;47983;53.016;-2.260;2023-02-28T05:24:03;4.70;99.90
59307;DHT22;47983;53.016;-2.260;2023-02-28T05:26:35;4.70;99.90
59307;DHT22;47983;53.016;-2.260;2023-02-28T05:29:03;4.70;99.90
59307;DHT22;47983;53.016;-2.260;2023-02-28T05:31:31;4.70;99.90
59307;DHT22;47983;53.016;-2.260;2023-02-28T05:33:59;4.70;99.90
59307;DHT22;47983;53.016;-2.260;2023-02-28T05:36:27;4.70;99.90
59307;DHT22;47983;53.016;-2.260;2023-02-28T05:38:55;4.70;99.90
59307;DHT22;47983;53.016;-2.260;2023-02-28T05:41:22;4.70;99.90
59307;DHT22;47983;53.016;-2.260;2023-02-28T05:43:50;4.80;99.90
59307;DHT22;47983;53.016;-2.260;2023-02-28T05:46:18;4.70;99.90
59307;DHT22;47983;53.016;-2.260;2023-02-28T05:48:47;4.70;99.90
59307;DHT22;47983;53.016;-2.260;2023-02-28T05:51:15;4.80;99.90
59307;DHT22;47983;53.016;-2.260;2023-02-28T05:53:43;4.80;99.90
59307;DHT22;47983;53.016;-2.260;2023-02-28T05:56:11;4.80;99.90
59307;DHT22;47983;53.016;-2.260;2023-02-28T05:58:39;4.80;99.90
59307;DHT22;47983;53.016;-2.260;2023-02-28T06:03:59;4.80;99.90
59307;DHT22;47983;53.016;-2.260;2023-02-28T06:06:28;4.80;99.90
59307;DHT22;47983;53.016;-2.260;2023-02-28T06:08:57;4.80;99.90
59307;DHT22;47983;53.016;-2.260;2023-02-28T06:11:24;4.80;99.90
59307;DHT22;47983;53.016;-2.260;2023-02-28T06:13:59;4.80;99.90
59307;DHT22;47983;53.016;-2.260;2023-02-28T06:16:29;4.80;99.90
59307;DHT22;47983;53.016;-2.260;2023-02-28T06:18:58;4.70;99.90
59307;DHT22;47983;53.016;-2.260;2023-02-28T06:21:26;4.80;99.90
59307;DHT22;47983;53.016;-2.260;2023-02-28T06:23:56;4.70;99.90
59307;DHT22;47983;53.016;-2.260;2023-02-28T06:26:25;4.70;99.90
59307;DHT22;47983;53.016;-2.260;2023-02-28T06:28:53;4.70;99.90
59307;DHT22;47983;53.016;-2.260;2023-02-28T06:31:21;4.70;99.90
59307;DHT22;47983;53.016;-2.260;2023-02-28T06:33:49;4.70;99.90
59307;DHT22;47983;53.016;-2.260;2023-02-28T06:36:18;4.50;99.90
59307;DHT22;47983;53.016;-2.260;2023-02-28T06:38:45;4.70;99.90
59307;DHT22;47983;53.016;-2.260;2023-02-28T06:41:15;4.70;99.90
59307;DHT22;47983;53.016;-2.260;2023-02-28T06:43:43;4.70;99.90
59307;DHT22;47983;53.016;-2.260;2023-02-28T06:46:13;4.70;99.90
59307;DHT22;47983;53.016;-2.260;2023-02-28T06:48:43;4.70;99.90
59307;DHT22;47983;53.016;-2.260;2023-02-28T06:51:17;4.60;99.90
59307;DHT22;47983;53.016;-2.260;2023-02-28T06:53:44;4.60;99.90
59307;DHT22;47983;53.016;-2.260;2023-02-28T06:56:14;4.60;99.90
59307;DHT22;47983;53.016;-2.260;2023-02-28T06:58:47;4.60;99.90
59307;DHT22;47983;53.016;-2.260;2023-02-28T07:01:16;4.60;99.90
59307;DHT22;47983;53.016;-2.260;2023-02-28T07:03:44;4.70;99.90
59307;DHT22;47983;53.016;-2.260;2023-02-28T07:06:12;4.70;99.90
59307;DHT22;47983;53.016;-2.260;2023-02-28T07:08:40;4.80;99.90
59307;DHT22;47983;53.016;-2.260;2023-02-28T07:11:08;4.80;99.90
59307;DHT22;47983;53.016;-2.260;2023-02-28T07:13:36;4.80;99.90
59307;DHT22;47983;53.016;-2.260;2023-02-28T07:16:06;4.80;99.90
59307;DHT22;47983;53.016;-2.260;2023-02-28T07:18:36;4.80;99.90
59307;DHT22;47983;53.016;-2.260;2023-02-28T07:21:06;4.80;99.90
59307;DHT22;47983;53.016;-2.260;2023-02-28T07:23:34;4.80;99.90
59307;DHT22;47983;53.016;-2.260;2023-02-28T07:26:02;4.90;99.90
59307;DHT22;47983;53.016;-2.260;2023-02-28T07:28:30;4.90;99.90
59307;DHT22;47983;53.016;-2.260;2023-02-28T07:31:04;4.90;99.90
59307;DHT22;47983;53.016;-2.260;2023-02-28T07:33:32;5.00;99.90
59307;DHT22;47983;53.016;-2.260;2023-02-28T07:36:04;5.00;99.90
59307;DHT22;47983;53.016;-2.260;2023-02-28T07:38:36;5.00;99.90
59307;DHT22;47983;53.016;-2.260;2023-02-28T07:41:04;5.00;99.90
59307;DHT22;47983;53.016;-2.260;2023-02-28T07:43:32;5.00;99.90
59307;DHT22;47983;53.016;-2.260;2023-02-28T07:46:05;5.00;99.90
59307;DHT22;47983;53.016;-2.260;2023-02-28T07:48:33;5.10;99.90
59307;DHT22;47983;53.016;-2.260;2023-02-28T07:51:01;5.10;99.90
59307;DHT22;47983;53.016;-2.260;2023-02-28T07:53:30;5.10;99.90
59307;DHT22;47983;53.016;-2.260;2023-02-28T07:55:59;5.10;99.90
59307;DHT22;47983;53.016;-2.260;2023-02-28T07:58:28;5.10;99.90
59307;DHT22;47983;53.016;-2.260;2023-02-28T08:00:56;5.20;99.90
59307;DHT22;47983;53.016;-2.260;2023-02-28T08:03:25;5.20;99.90
59307;DHT22;47983;53.016;-2.260;2023-02-28T08:05:53;5.20;99.90
59307;DHT22;47983;53.016;-2.260;2023-02-28T08:10:48;5.30;99.90
59307;DHT22;47983;53.016;-2.260;2023-02-28T08:13:16;5.30;99.90
59307;DHT22;47983;53.016;-2.260;2023-02-28T08:15:44;5.30;99.90
59307;DHT22;47983;53.016;-2.260;2023-02-28T08:18:13;5.30;99.90
59307;DHT22;47983;53.016;-2.260;2023-02-28T08:20:41;5.40;99.90
59307;DHT22;47983;53.016;-2.260;2023-02-28T08:23:08;5.40;99.90
59307;DHT22;47983;53.016;-2.260;2023-02-28T08:25:36;5.50;99.90
59307;DHT22;47983;53.016;-2.260;2023-02-28T08:28:04;5.50;99.90
59307;DHT22;47983;53.016;-2.260;2023-02-28T08:30:31;5.50;99.90
59307;DHT22;47983;53.016;-2.260;2023-02-28T08:32:59;5.60;99.90
59307;DHT22;47983;53.016;-2.260;2023-02-28T08:35:29;5.60;99.90
59307;DHT22;47983;53.016;-2.260;2023-02-28T08:37:56;5.60;99.90
59307;DHT22;47983;53.016;-2.260;2023-02-28T08:40:24;5.80;99.90
59307;DHT22;47983;53.016;-2.260;2023-02-28T08:42:52;5.80;99.90
59307;DHT22;47983;53.016;-2.260;2023-02-28T08:45:20;5.80;99.90
59307;DHT22;47983;53.016;-2.260;2023-02-28T08:47:47;5.90;99.90
59307;DHT22;47983;53.016;-2.260;2023-02-28T08:50:15;5.90;99.90
59307;DHT22;47983;53.016;-2.260;2023-02-28T08:52:44;6.00;99.90
59307;DHT22;47983;53.016;-2.260;2023-02-28T08:55:11;6.00;99.90
59307;DHT22;47983;53.016;-2.260;2023-02-28T08:57:39;6.10;99.90
59307;DHT22;47983;53.016;-2.260;2023-02-28T09:00:07;6.10;99.90
59307;DHT22;47983;53.016;-2.260;2023-02-28T09:02:35;6.20;99.90
59307;DHT22;47983;53.016;-2.260;2023-02-28T09:05:03;6.20;99.90
59307;DHT22;47983;53.016;-2.260;2023-02-28T09:07:31;6.30;99.90
59307;DHT22;47983;53.016;-2.260;2023-02-28T09:09:58;6.30;99.90
59307;DHT22;47983;53.016;-2.260;2023-02-28T09:12:33;6.40;99.90
59307;DHT22;47983;53.016;-2.260;2023-02-28T09:15:05;6.40;99.90
59307;DHT22;47983;53.016;-2.260;2023-02-28T09:17:33;6.40;99.90
59307;DHT22;47983;53.016;-2.260;2023-02-28T09:20:01;6.50;99.90
59307;DHT22;47983;53.016;-2.260;2023-02-28T09:22:29;6.50;99.90
59307;DHT22;47983;53.016;-2.260;2023-02-28T09:24:56;6.50;99.90
59307;DHT22;47983;53.016;-2.260;2023-02-28T09:27:24;6.50;99.90
59307;DHT22;47983;53.016;-2.260;2023-02-28T09:29:52;5.30;99.90
59307;DHT22;47983;53.016;-2.260;2023-02-28T09:32:19;6.60;99.90
59307;DHT22;47983;53.016;-2.260;2023-02-28T09:34:47;6.60;99.90
59307;DHT22;47983;53.016;-2.260;2023-02-28T09:37:15;6.60;99.90
59307;DHT22;47983;53.016;-2.260;2023-02-28T09:39:42;6.60;99.90
59307;DHT22;47983;53.016;-2.260;2023-02-28T09:42:32;6.60;99.90
59307;DHT22;47983;53.016;-2.260;2023-02-28T09:45:02;6.70;99.90
59307;DHT22;47983;53.016;-2.260;2023-02-28T09:47:36;6.80;99.90
59307;DHT22;47983;53.016;-2.260;2023-02-28T09:50:51;6.90;99.90
59307;DHT22;47983;53.016;-2.260;2023-02-28T09:55:54;7.00;99.90
59307;DHT22;47983;53.016;-2.260;2023-02-28T10:01:03;7.20;99.90
59307;DHT22;47983;53.016;-2.260;2023-02-28T10:03:44;7.20;99.90
59307;DHT22;47983;53.016;-2.260;2023-02-28T10:08:50;7.20;99.90
59307;DHT22;47983;53.016;-2.260;2023-02-28T10:11:20;7.20;99.90
59307;DHT22;47983;53.016;-2.260;2023-02-28T10:13:56;7.30;99.90
59307;DHT22;47983;53.016;-2.260;2023-02-28T10:16:35;7.30;99.90
59307;DHT22;47983;53.016;-2.260;2023-02-28T10:21:49;7.30;99.90
59307;DHT22;47983;53.016;-2.260;2023-02-28T10:24:29;7.40;99.90
59307;DHT22;47983;53.016;-2.260;2023-02-28T10:27:13;7.40;99.90
59307;DHT22;47983;53.016;-2.260;2023-02-28T10:29:46;7.40;99.90
59307;DHT22;47983;53.016;-2.260;2023-02-28T10:32:18;7.50;99.90
59307;DHT22;47983;53.016;-2.260;2023-02-28T10:35:01;7.50;99.90
59307;DHT22;47983;53.016;-2.260;2023-02-28T10:37:34;7.50;99.90
59307;DHT22;47983;53.016;-2.260;2023-02-28T10:40:07;7.60;99.90
59307;DHT22;47983;53.016;-2.260;2023-02-28T10:48:38;7.80;99.90
59307;DHT22;47983;53.016;-2.260;2023-02-28T10:51:10;7.90;99.90
59307;DHT22;47983;53.016;-2.260;2023-02-28T10:53:48;8.00;99.90
59307;DHT22;47983;53.016;-2.260;2023-02-28T10:56:28;8.00;99.90
59307;DHT22;47983;53.016;-2.260;2023-02-28T10:59:02;8.00;99.90
59307;DHT22;47983;53.016;-2.260;2023-02-28T11:12:29;8.10;99.90
59307;DHT22;47983;53.016;-2.260;2023-02-28T11:15:04;8.10;99.90
59307;DHT22;47983;53.016;-2.260;2023-02-28T11:17:33;8.10;99.90
59307;DHT22;47983;53.016;-2.260;2023-02-28T11:20:05;8.10;99.90
59307;DHT22;47983;53.016;-2.260;2023-02-28T11:22:37;8.50;99.90
59307;DHT22;47983;53.016;-2.260;2023-02-28T11:25:19;8.10;99.90
59307;DHT22;47983;53.016;-2.260;2023-02-28T11:27:50;8.10;99.90
59307;DHT22;47983;53.016;-2.260;2023-02-28T11:30:34;8.20;99.90
59307;DHT22;47983;53.016;-2.260;2023-02-28T11:35:49;8.30;99.90
59307;DHT22;47983;53.016;-2.260;2023-02-28T11:38:18;8.30;99.90
59307;DHT22;47983;53.016;-2.260;2023-02-28T11:40:56;8.30;99.90
59307;DHT22;47983;53.016;-2.260;2023-02-28T11:46:39;8.50;99.90
59307;DHT22;47983;53.016;-2.260;2023-02-28T11:49:26;8.60;99.90
59307;DHT22;47983;53.016;-2.260;2023-02-28T12:02:59;8.80;99.90
59307;DHT22;47983;53.016;-2.260;2023-02-28T12:05:54;8.70;99.90
59307;DHT22;47983;53.016;-2.260;2023-02-28T12:11:35;8.40;99.90
59307;DHT22;47983;53.016;-2.260;2023-02-28T12:25:41;8.50;99.90
59307;DHT22;47983;53.016;-2.260;2023-02-28T12:28:18;8.50;99.90
59307;DHT22;47983;53.016;-2.260;2023-02-28T12:31:00;8.50;99.90
59307;DHT22;47983;53.016;-2.260;2023-02-28T12:33:34;8.50;99.90
59307;DHT22;47983;53.016;-2.260;2023-02-28T12:36:09;8.50;99.90
59307;DHT22;47983;53.016;-2.260;2023-02-28T12:38:39;8.60;99.90
59307;DHT22;47983;53.016;-2.260;2023-02-28T12:41:40;8.80;99.90
59307;DHT22;47983;53.016;-2.260;2023-02-28T12:44:32;8.90;99.90
59307;DHT22;47983;53.016;-2.260;2023-02-28T12:47:05;8.90;99.90
59307;DHT22;47983;53.016;-2.260;2023-02-28T12:49:52;9.00;99.90
59307;DHT22;47983;53.016;-2.260;2023-02-28T12:58:35;8.90;99.90
59307;DHT22;47983;53.016;-2.260;2023-02-28T13:06:58;9.10;99.90
59307;DHT22;47983;53.016;-2.260;2023-02-28T13:09:27;9.00;99.90
59307;DHT22;47983;53.016;-2.260;2023-02-28T13:11:58;9.10;99.90
59307;DHT22;47983;53.016;-2.260;2023-02-28T13:14:35;9.00;99.90
59307;DHT22;47983;53.016;-2.260;2023-02-28T13:17:11;9.00;99.90
59307;DHT22;47983;53.016;-2.260;2023-02-28T13:19:56;8.90;99.90
59307;DHT22;47983;53.016;-2.260;2023-02-28T13:23:03;8.90;99.90
59307;DHT22;47983;53.016;-2.260;2023-02-28T13:28:07;8.90;99.90
59307;DHT22;47983;53.016;-2.260;2023-02-28T13:33:36;8.80;99.90
59307;DHT22;47983;53.016;-2.260;2023-02-28T13:36:31;8.80;99.90
59307;DHT22;47983;53.016;-2.260;2023-02-28T13:39:01;8.80;99.90
59307;DHT22;47983;53.016;-2.260;2023-02-28T13:44:01;8.80;99.90
59307;DHT22;47983;53.016;-2.260;2023-02-28T13:46:30;8.80;99.90
59307;DHT22;47983;53.016;-2.260;2023-02-28T14:00:23;8.90;99.90
59307;DHT22;47983;53.016;-2.260;2023-02-28T14:05:41;8.80;99.90
59307;DHT22;47983;53.016;-2.260;2023-02-28T14:08:19;8.80;99.90
59307;DHT22;47983;53.016;-2.260;2023-02-28T14:10:50;8.80;99.90
59307;DHT22;47983;53.016;-2.260;2023-02-28T14:13:43;8.80;99.90
59307;DHT22;47983;53.016;-2.260;2023-02-28T14:16:44;8.80;99.90
59307;DHT22;47983;53.016;-2.260;2023-02-28T14:19:19;8.80;99.90
59307;DHT22;47983;53.016;-2.260;2023-02-28T14:27:13;8.70;99.90
59307;DHT22;47983;53.016;-2.260;2023-02-28T14:33:10;8.70;99.90
59307;DHT22;47983;53.016;-2.260;2023-02-28T14:38:17;8.80;99.90
59307;DHT22;47983;53.016;-2.260;2023-02-28T14:40:47;8.80;99.90
59307;DHT22;47983;53.016;-2.260;2023-02-28T14:43:22;8.70;99.90
59307;DHT22;47983;53.016;-2.260;2023-02-28T14:45:59;8.70;99.90
59307;DHT22;47983;53.016;-2.260;2023-02-28T14:48:28;8.70;99.90
59307;DHT22;47983;53.016;-2.260;2023-02-28T14:51:00;8.70;99.90
59307;DHT22;47983;53.016;-2.260;2023-02-28T14:53:30;8.70;99.90
59307;DHT22;47983;53.016;-2.260;2023-02-28T14:56:02;8.60;99.90
59307;DHT22;47983;53.016;-2.260;2023-02-28T14:58:32;8.60;99.90
59307;DHT22;47983;53.016;-2.260;2023-02-28T15:01:03;8.50;99.90
59307;DHT22;47983;53.016;-2.260;2023-02-28T15:03:37;8.50;99.90
59307;DHT22;47983;53.016;-2.260;2023-02-28T15:06:12;8.50;99.90
59307;DHT22;47983;53.016;-2.260;2023-02-28T15:08:41;8.50;99.90
59307;DHT22;47983;53.016;-2.260;2023-02-28T15:13:46;8.50;99.90
59307;DHT22;47983;53.016;-2.260;2023-02-28T15:18:54;8.50;99.90
59307;DHT22;47983;53.016;-2.260;2023-02-28T15:21:34;8.50;99.90
59307;DHT22;47983;53.016;-2.260;2023-02-28T15:26:43;8.40;99.90
59307;DHT22;47983;53.016;-2.260;2023-02-28T15:29:20;8.40;99.90
59307;DHT22;47983;53.016;-2.260;2023-02-28T15:31:57;8.30;99.90
59307;DHT22;47983;53.016;-2.260;2023-02-28T15:34:37;8.30;99.90
59307;DHT22;47983;53.016;-2.260;2023-02-28T15:37:40;8.30;99.90
59307;DHT22;47983;53.016;-2.260;2023-02-28T15:40:23;8.20;99.90
59307;DHT22;47983;53.016;-2.260;2023-02-28T15:43:18;8.20;99.90
59307;DHT22;47983;53.016;-2.260;2023-02-28T15:51:22;8.10;99.90
59307;DHT22;47983;53.016;-2.260;2023-02-28T15:54:04;8.00;99.90
59307;DHT22;47983;53.016;-2.260;2023-02-28T15:56:35;8.00;99.90
59307;DHT22;47983;53.016;-2.260;2023-02-28T15:59:07;8.00;99.90
59307;DHT22;47983;53.016;-2.260;2023-02-28T16:01:39;8.00;99.90
59307;DHT22;47983;53.016;-2.260;2023-02-28T16:04:14;7.90;99.90
59307;DHT22;47983;53.016;-2.260;2023-02-28T16:06:44;7.90;99.90
59307;DHT22;47983;53.016;-2.260;2023-02-28T16:09:15;8.00;99.90
59307;DHT22;47983;53.016;-2.260;2023-02-28T16:11:51;8.00;99.90
59307;DHT22;47983;53.016;-2.260;2023-02-28T16:14:22;8.00;99.90
59307;DHT22;47983;53.016;-2.260;2023-02-28T16:16:54;7.90;99.90
59307;DHT22;47983;53.016;-2.260;2023-02-28T16:19:22;8.00;99.90
59307;DHT22;47983;53.016;-2.260;2023-02-28T16:21:51;8.00;99.90
59307;DHT22;47983;53.016;-2.260;2023-02-28T16:24:19;8.00;99.90
59307;DHT22;47983;53.016;-2.260;2023-02-28T16:26:48;8.00;99.90
59307;DHT22;47983;53.016;-2.260;2023-02-28T16:29:36;8.00;99.90
59307;DHT22;47983;53.016;-2.260;2023-02-28T16:32:05;8.00;99.90
59307;DHT22;47983;53.016;-2.260;2023-02-28T16:34:33;8.00;99.90
59307;DHT22;47983;53.016;-2.260;2023-02-28T16:37:01;8.00;99.90
59307;DHT22;47983;53.016;-2.260;2023-02-28T16:39:28;8.00;99.90
59307;DHT22;47983;53.016;-2.260;2023-02-28T16:41:56;8.00;99.90
59307;DHT22;47983;53.016;-2.260;2023-02-28T16:44:29;8.00;99.90
59307;DHT22;47983;53.016;-2.260;2023-02-28T16:47:00;7.90;99.90
59307;DHT22;47983;53.016;-2.260;2023-02-28T16:49:29;7.90;99.90
59307;DHT22;47983;53.016;-2.260;2023-02-28T16:51:57;7.90;99.90
59307;DHT22;47983;53.016;-2.260;2023-02-28T16:54:24;7.90;99.90
59307;DHT22;47983;53.016;-2.260;2023-02-28T16:56:52;7.90;99.90
59307;DHT22;47983;53.016;-2.260;2023-02-28T16:59:24;7.90;99.90
59307;DHT22;47983;53.016;-2.260;2023-02-28T17:01:55;7.80;99.90
59307;DHT22;47983;53.016;-2.260;2023-02-28T17:04:26;7.80;99.90
59307;DHT22;47983;53.016;-2.260;2023-02-28T17:06:53;7.80;99.90
59307;DHT22;47983;53.016;-2.260;2023-02-28T17:09:23;7.70;99.90
59307;DHT22;47983;53.016;-2.260;2023-02-28T17:12:08;7.80;99.90
59307;DHT22;47983;53.016;-2.260;2023-02-28T17:14:36;7.70;99.90
59307;DHT22;47983;53.016;-2.260;2023-02-28T17:17:07;7.70;99.90
59307;DHT22;47983;53.016;-2.260;2023-02-28T17:19:35;7.60;99.90
59307;DHT22;47983;53.016;-2.260;2023-02-28T17:22:03;7.60;99.90
59307;DHT22;47983;53.016;-2.260;2023-02-28T17:24:31;7.60;99.90
59307;DHT22;47983;53.016;-2.260;2023-02-28T17:26:58;7.50;99.90
59307;DHT22;47983;53.016;-2.260;2023-02-28T17:29:26;7.50;99.90
59307;DHT22;47983;53.016;-2.260;2023-02-28T17:31:55;7.50;99.90
59307;DHT22;47983;53.016;-2.260;2023-02-28T17:34:27;7.40;99.90
59307;DHT22;47983;53.016;-2.260;2023-02-28T17:36:54;7.40;99.90
59307;DHT22;47983;53.016;-2.260;2023-02-28T17:39:22;7.40;99.90
59307;DHT22;47983;53.016;-2.260;2023-02-28T17:41:54;7.30;99.90
59307;DHT22;47983;53.016;-2.260;2023-02-28T17:44:23;7.30;99.90
59307;DHT22;47983;53.016;-2.260;2023-02-28T17:46:52;7.30;99.90
59307;DHT22;47983;53.016;-2.260;2023-02-28T17:49:20;7.30;99.90
59307;DHT22;47983;53.016;-2.260;2023-02-28T17:51:49;7.20;99.90
59307;DHT22;47983;53.016;-2.260;2023-02-28T17:54:18;7.20;99.90
59307;DHT22;47983;53.016;-2.260;2023-02-28T17:56:46;7.20;99.90
59307;DHT22;47983;53.016;-2.260;2023-02-28T17:59:14;7.20;99.90
59307;DHT22;47983;53.016;-2.260;2023-02-28T18:01:42;7.20;99.90
59307;DHT22;47983;53.016;-2.260;2023-02-28T18:04:10;7.20;99.90
59307;DHT22;47983;53.016;-2.260;2023-02-28T18:06:43;7.20;99.90
59307;DHT22;47983;53.016;-2.260;2023-02-28T18:09:19;7.10;99.90
59307;DHT22;47983;53.016;-2.260;2023-02-28T18:11:50;7.10;99.90
59307;DHT22;47983;53.016;-2.260;2023-02-28T18:14:21;7.10;99.90
59307;DHT22;47983;53.016;-2.260;2023-02-28T18:16:50;7.10;99.90
59307;DHT22;47983;53.016;-2.260;2023-02-28T18:19:22;7.10;99.90
59307;DHT22;47983;53.016;-2.260;2023-02-28T18:21:52;7.10;99.90
59307;DHT22;47983;53.016;-2.260;2023-02-28T18:24:21;7.00;99.90
59307;DHT22;47983;53.016;-2.260;2023-02-28T18:26:49;7.00;99.90
59307;DHT22;47983;53.016;-2.260;2023-02-28T18:29:23;7.00;99.90
59307;DHT22;47983;53.016;-2.260;2023-02-28T18:31:51;7.00;99.90